Time;durP1;ratioP1;P1;durP2;ratioP2;P2;SDS_P1;SDS_P2;PMS_P1;PMS_P2;Temp;Humidity;BMP_temperature;BMP_pressure;BME280_temperature;BME280_humidity;BME280_pressure;Samples;Min_cycle;Max_cycle;Signal;HPM_P1;HPM_P2
2022/06/20 00:00:06;;;;;;;10.32;6.15;;;;;;;24.18;62.22;95904.09;5059079;28;20293;-49
2022/06/20 00:02:32;;;;;;;7.60;5.90;;;;;;;24.12;62.65;95907.75;5069976;28;20207;-51
2022/06/20 00:05:03;;;;;;;11.95;6.63;;;;;;;24.09;63.43;95902.84;5077382;28;20210;-51
2022/06/20 00:07:30;;;;;;;10.88;6.63;;;;;;;24.05;63.71;95901.69;5064732;28;20214;-49
2022/06/20 00:09:57;;;;;;;9.45;6.85;;;;;;;24.04;62.77;95908.16;5045316;28;20246;-50
2022/06/20 00:12:26;;;;;;;9.55;6.30;;;;;;;24.03;63.21;95914.59;5058206;28;20294;-48
2022/06/20 00:14:55;;;;;;;10.45;5.88;;;;;;;24.00;63.50;95909.69;5058140;28;20207;-51
2022/06/20 00:17:23;;;;;;;7.13;6.03;;;;;;;23.97;63.43;95911.03;5058652;28;20233;-50
2022/06/20 00:19:49;;;;;;;8.70;6.75;;;;;;;23.93;64.02;95922.53;5059934;28;20200;-48
2022/06/20 00:22:16;;;;;;;8.93;6.40;;;;;;;23.91;63.91;95930.09;5069501;28;20551;-50
2022/06/20 00:24:47;;;;;;;8.68;6.38;;;;;;;23.86;64.59;95933.50;5069003;28;20226;-48
2022/06/20 00:27:14;;;;;;;7.20;6.22;;;;;;;23.82;64.96;95926.13;5057797;28;20293;-50
2022/06/20 00:29:42;;;;;;;7.38;6.35;;;;;;;23.76;64.85;95920.66;5057753;28;20211;-48
2022/06/20 00:32:11;;;;;;;8.02;5.90;;;;;;;23.72;65.32;95922.19;5057824;28;20213;-50
2022/06/20 00:34:39;;;;;;;7.07;6.40;;;;;;;23.61;67.48;95931.16;5057780;28;20524;-49
2022/06/20 00:37:07;;;;;;;10.55;6.25;;;;;;;23.65;65.74;95932.31;5057583;28;20222;-49
2022/06/20 00:39:36;;;;;;;7.82;6.72;;;;;;;23.61;66.02;95925.78;5057865;28;20630;-49
2022/06/20 00:42:03;;;;;;;10.35;6.72;;;;;;;23.62;64.82;95927.41;5057186;28;20213;-49
2022/06/20 00:44:34;;;;;;;7.97;7.18;;;;;;;23.61;64.42;95933.03;5057776;28;20290;-50
2022/06/20 00:47:05;;;;;;;8.80;6.75;;;;;;;23.56;65.12;95939.16;5057240;28;20275;-50
2022/06/20 00:49:35;;;;;;;8.57;6.30;;;;;;;23.45;66.74;95937.34;5057739;28;20532;-49
2022/06/20 00:52:07;;;;;;;11.00;6.70;;;;;;;23.43;66.42;95939.44;5057625;28;20317;-50
2022/06/20 00:54:37;;;;;;;8.98;6.80;;;;;;;23.37;67.18;95937.69;5057407;28;20262;-49
2022/06/20 00:57:07;;;;;;;8.68;6.60;;;;;;;23.29;67.60;95935.34;5057476;28;20310;-50
2022/06/20 00:59:37;;;;;;;9.30;6.68;;;;;;;23.26;68.38;95922.34;5057221;28;20306;-52
2022/06/20 01:02:06;;;;;;;7.75;6.80;;;;;;;23.20;68.20;95934.09;5066091;28;20198;-51
2022/06/20 01:04:37;;;;;;;8.55;6.60;;;;;;;23.12;68.90;95934.47;5061299;28;20203;-51
2022/06/20 01:07:12;;;;;;;8.23;6.43;;;;;;;23.13;68.71;95938.81;5057447;28;20213;-50
2022/06/20 01:09:42;;;;;;;7.32;6.63;;;;;;;23.10;68.81;95941.97;5057376;28;20543;-49
2022/06/20 01:12:11;;;;;;;9.25;6.93;;;;;;;23.05;69.16;95947.28;5055823;28;20231;-49
2022/06/20 01:14:38;;;;;;;8.20;7.35;;;;;;;23.00;69.36;95955.25;5056968;28;20598;-50
2022/06/20 01:17:06;;;;;;;9.23;6.55;;;;;;;22.94;69.90;95950.81;5057304;28;20245;-50
2022/06/20 01:19:43;;;;;;;10.57;7.53;;;;;;;22.89;69.51;95953.38;5056775;28;20199;-51
2022/06/20 01:22:23;;;;;;;8.45;6.47;;;;;;;22.92;69.33;95955.63;5057158;28;20293;-50
2022/06/20 01:25:01;;;;;;;7.97;6.80;;;;;;;22.94;68.75;95964.28;5056889;28;20191;-49
2022/06/20 01:27:33;;;;;;;11.55;7.15;;;;;;;22.88;68.99;95968.75;5057142;28;20505;-49
2022/06/20 01:30:01;;;;;;;8.07;6.60;;;;;;;22.82;69.88;95983.16;5057106;28;20237;-51
2022/06/20 01:32:27;;;;;;;8.50;7.70;;;;;;;22.89;68.91;95980.34;5056335;28;20211;-49
2022/06/20 01:34:54;;;;;;;9.90;7.47;;;;;;;22.83;70.42;95975.91;5057002;28;20227;-50
2022/06/20 01:37:26;;;;;;;8.32;6.80;;;;;;;22.83;69.76;95973.19;5076692;28;20210;-50
2022/06/20 01:39:54;;;;;;;11.38;7.53;;;;;;;22.77;70.09;95970.41;5076534;28;20202;-49
2022/06/20 01:42:20;;;;;;;7.97;6.70;;;;;;;22.76;70.00;95962.53;5076627;28;20293;-50
2022/06/20 01:44:50;;;;;;;7.22;6.47;;;;;;;22.78;69.31;95961.25;5076554;28;20289;-48
2022/06/20 01:47:17;;;;;;;11.75;6.55;;;;;;;22.72;70.57;95964.06;5076681;28;20601;-49
2022/06/20 01:49:45;;;;;;;8.43;6.75;;;;;;;22.74;70.36;95968.16;5076360;28;20206;-50
2022/06/20 01:52:16;;;;;;;9.25;7.00;;;;;;;22.70;70.88;95961.63;5076329;28;20232;-48
2022/06/20 01:54:46;;;;;;;9.77;7.18;;;;;;;22.64;71.74;95973.28;5074186;28;20203;-49
2022/06/20 01:57:14;;;;;;;7.95;7.00;;;;;;;22.63;71.96;95974.38;5076312;28;20233;-49
2022/06/20 01:59:46;;;;;;;10.30;7.18;;;;;;;22.60;72.56;95972.13;5077237;28;20305;-49
2022/06/20 02:02:14;;;;;;;8.02;7.05;;;;;;;22.64;71.65;95961.69;5075240;28;20202;-51
2022/06/20 02:04:41;;;;;;;9.63;6.88;;;;;;;22.65;71.68;95955.25;5078905;28;20627;-50
2022/06/20 02:07:10;;;;;;;9.15;6.90;;;;;;;22.67;71.07;95955.88;5075699;28;20221;-51
2022/06/20 02:09:38;;;;;;;10.43;7.25;;;;;;;22.70;70.68;95971.59;5075747;28;20210;-49
2022/06/20 02:12:09;;;;;;;10.65;7.40;;;;;;;22.68;71.89;95974.50;5075813;28;20236;-50
2022/06/20 02:14:39;;;;;;;11.63;7.45;;;;;;;22.69;71.81;95975.31;5090422;28;20215;-49
2022/06/20 02:17:10;;;;;;;7.90;7.20;;;;;;;22.73;71.56;95987.28;5082431;28;20207;-49
2022/06/20 02:19:41;;;;;;;9.75;7.45;;;;;;;22.78;70.50;95984.69;5061026;28;20199;-49
2022/06/20 02:22:09;;;;;;;10.35;7.38;;;;;;;22.83;70.03;95984.81;5052321;28;20295;-48
2022/06/20 02:24:39;;;;;;;8.70;7.40;;;;;;;22.91;69.31;95986.34;5074195;28;20294;-48
2022/06/20 02:27:08;;;;;;;10.85;7.47;;;;;;;22.99;68.85;95996.78;5055599;28;20211;-49
2022/06/20 02:29:35;;;;;;;10.38;7.25;;;;;;;23.02;69.05;95999.81;5054931;28;20207;-50
2022/06/20 02:32:06;;;;;;;9.20;7.68;;;;;;;23.07;69.10;96007.19;5054962;28;20672;-49
2022/06/20 02:34:35;;;;;;;8.88;7.47;;;;;;;23.07;69.63;96010.69;5055589;28;20656;-48
2022/06/20 02:37:07;;;;;;;10.63;7.70;;;;;;;23.07;69.67;96010.69;5055847;28;20217;-50
2022/06/20 02:39:36;;;;;;;9.50;7.70;;;;;;;23.07;70.30;96016.09;5055987;28;20227;-50
2022/06/20 02:42:07;;;;;;;12.25;7.78;;;;;;;23.05;70.27;96014.69;5055571;28;20237;-49
2022/06/20 02:44:34;;;;;;;10.80;7.78;;;;;;;23.01;70.98;96013.53;5055561;28;20219;-49
2022/06/20 02:47:03;;;;;;;12.48;7.55;;;;;;;22.96;71.14;96008.81;5054993;28;20684;-49
2022/06/20 02:49:33;;;;;;;11.57;7.38;;;;;;;22.94;71.31;96002.88;5055353;28;20280;-51
2022/06/20 02:52:00;;;;;;;10.25;8.05;;;;;;;22.90;71.51;96011.66;5055060;28;20622;-49
2022/06/20 02:54:31;;;;;;;10.35;7.70;;;;;;;22.82;71.58;96012.81;5055466;28;20298;-50
2022/06/20 02:57:02;;;;;;;15.40;8.35;;;;;;;22.80;71.38;96018.47;5075434;28;20285;-49
2022/06/20 02:59:32;;;;;;;9.57;7.68;;;;;;;22.77;71.20;96021.63;5075236;28;20214;-50
2022/06/20 03:02:05;;;;;;;13.10;8.10;;;;;;;22.74;72.18;96027.47;5073897;28;20278;-49
2022/06/20 03:04:34;;;;;;;8.38;7.57;;;;;;;22.70;72.03;96022.78;5058720;28;20209;-49
2022/06/20 03:07:04;;;;;;;10.60;7.68;;;;;;;22.68;72.66;96030.28;5059014;28;20203;-49
2022/06/20 03:09:34;;;;;;;12.52;7.57;;;;;;;22.67;72.92;96026.75;5058721;28;20297;-50
2022/06/20 03:12:03;;;;;;;14.52;7.88;;;;;;;22.67;73.16;96032.16;5059562;28;20230;-49
2022/06/20 03:14:37;;;;;;;10.70;7.07;;;;;;;22.68;72.83;96030.28;5059418;28;20235;-48
2022/06/20 03:17:04;;;;;;;11.48;8.20;;;;;;;22.69;72.26;96040.84;5058310;28;20207;-50
2022/06/20 03:19:33;;;;;;;9.52;8.02;;;;;;;22.70;72.39;96047.88;5058615;28;20289;-49
2022/06/20 03:22:02;;;;;;;11.07;7.70;;;;;;;22.70;72.70;96052.44;5058848;28;20198;-50
2022/06/20 03:24:29;;;;;;;12.35;7.72;;;;;;;22.71;72.34;96054.88;5058819;28;20207;-50
2022/06/20 03:26:57;;;;;;;15.50;7.65;;;;;;;22.72;72.34;96055.72;5058217;28;20648;-51
2022/06/20 03:29:25;;;;;;;9.80;6.75;;;;;;;22.74;68.57;96059.03;5058615;28;20229;-51
2022/06/20 03:31:53;;;;;;;8.35;6.50;;;;;;;22.81;65.54;96057.81;5058748;28;20562;-49
2022/06/20 03:34:21;;;;;;;9.15;6.28;;;;;;;22.90;64.54;96054.78;5058707;28;20257;-49
2022/06/20 03:36:50;;;;;;;8.20;5.63;;;;;;;23.09;61.09;96062.53;5058729;28;20295;-49
2022/06/20 03:39:17;;;;;;;7.82;5.50;;;;;;;23.21;60.32;96070.59;5058414;28;20597;-51
2022/06/20 03:41:44;;;;;;;7.22;5.38;;;;;;;23.30;60.01;96077.31;5058160;28;20302;-50
2022/06/20 03:44:17;;;;;;;6.53;5.57;;;;;;;23.44;59.01;96081.44;5067148;28;20206;-48
2022/06/20 03:46:47;;;;;;;8.32;5.55;;;;;;;23.57;58.24;96085.72;5078039;28;20214;-50
2022/06/20 03:49:17;;;;;;;6.82;5.22;;;;;;;23.68;58.17;96088.41;5078168;28;20714;-49
2022/06/20 03:51:49;;;;;;;5.63;5.10;;;;;;;23.81;57.42;96094.63;5078190;28;20244;-49
2022/06/20 03:54:20;;;;;;;6.47;4.85;;;;;;;23.91;56.69;96097.53;5078422;28;20217;-48
2022/06/20 03:56:51;;;;;;;5.63;5.13;;;;;;;23.93;57.06;96096.22;5078495;28;20289;-49
2022/06/20 03:59:24;;;;;;;5.82;5.10;;;;;;;24.02;56.98;96112.88;5078970;28;20202;-51
2022/06/20 04:01:54;;;;;;;10.93;5.63;;;;;;;24.04;56.51;96113.44;5070319;28;20590;-51
2022/06/20 04:04:23;;;;;;;9.60;5.75;;;;;;;24.10;56.25;96115.19;5059504;28;20592;-51
2022/06/20 04:06:54;;;;;;;9.40;5.55;;;;;;;24.10;56.30;96112.47;5062124;28;20271;-49
2022/06/20 04:12:20;;;;;;;8.45;5.45;;;;;;;24.05;56.65;96115.91;5060572;28;20269;-48
2022/06/20 04:14:55;;;;;;;6.30;5.57;;;;;;;24.03;57.55;96122.59;5064660;28;20288;-50
2022/06/20 04:20:18;;;;;;;6.63;5.38;;;;;;;24.03;57.04;96138.81;5054000;28;20292;-49
2022/06/20 04:22:45;;;;;;;7.70;5.50;;;;;;;23.99;57.60;96133.06;5057616;28;20210;-49
2022/06/20 04:25:19;;;;;;;6.72;5.43;;;;;;;23.94;58.09;96132.16;5057513;28;20298;-49
2022/06/20 04:27:49;;;;;;;8.55;5.60;;;;;;;23.89;59.15;96132.84;5045299;28;20290;-49
2022/06/20 04:30:21;;;;;;;9.93;5.63;;;;;;;23.93;59.01;96133.19;5057576;28;20298;-49
2022/06/20 04:32:56;;;;;;;7.05;4.85;;;;;;;24.02;58.38;96126.38;5057566;28;20219;-49
2022/06/20 04:35:26;;;;;;;5.97;5.35;;;;;;;24.14;58.09;96132.59;5057460;28;20202;-49
2022/06/20 04:37:56;;;;;;;12.02;6.13;;;;;;;24.16;58.92;96138.59;5057551;28;20292;-48
2022/06/20 04:40:27;;;;;;;7.00;5.22;;;;;;;24.21;59.00;96152.19;5057291;28;20199;-48
2022/06/20 04:43:01;;;;;;;8.07;5.97;;;;;;;24.33;57.83;96155.66;5057696;28;20346;-49
2022/06/20 04:45:33;;;;;;;6.00;4.55;;;;;;;24.43;56.80;96157.75;5057413;28;20226;-48
2022/06/20 04:48:05;;;;;;;5.88;4.82;;;;;;;24.52;56.00;96158.97;5057034;28;20242;-49
2022/06/20 04:50:35;;;;;;;6.97;5.75;;;;;;;24.59;56.31;96165.88;5057318;28;20215;-49
2022/06/20 04:53:05;;;;;;;5.72;5.07;;;;;;;24.70;55.85;96156.91;5057558;28;20233;-49
2022/06/20 04:55:33;;;;;;;5.80;4.88;;;;;;;24.77;55.87;96162.97;5057555;28;20210;-49
2022/06/20 04:58:04;;;;;;;7.60;5.07;;;;;;;24.85;55.68;96161.78;5057333;28;20617;-51
2022/06/20 05:00:37;;;;;;;7.40;4.97;;;;;;;24.97;52.48;96167.97;5057264;28;20296;-49
2022/06/20 05:03:05;;;;;;;5.05;4.63;;;;;;;25.00;53.92;96178.28;5056907;28;20282;-50
2022/06/20 05:05:36;;;;;;;7.43;5.05;;;;;;;25.03;55.71;96179.69;5057632;28;20286;-50
2022/06/20 05:08:05;;;;;;;7.63;4.90;;;;;;;25.01;56.71;96177.22;5056983;28;20245;-50
2022/06/20 05:10:36;;;;;;;7.95;4.78;;;;;;;25.04;57.04;96178.63;5068929;28;20297;-49
2022/06/20 05:13:10;;;;;;;6.60;4.93;;;;;;;25.17;55.17;96183.72;5076986;28;20233;-49
2022/06/20 05:15:42;;;;;;;8.63;4.60;;;;;;;25.25;54.44;96180.59;5077863;28;20304;-52
2022/06/20 05:18:27;;;;;;;6.45;5.05;;;;;;;25.38;54.28;96179.44;5045145;28;20591;-50
2022/06/20 05:20:56;;;;;;;4.95;4.40;;;;;;;25.44;54.12;96183.84;5057499;28;20590;-50
2022/06/20 05:23:28;;;;;;;8.32;4.82;;;;;;;25.48;53.86;96191.25;5057574;28;20628;-50
2022/06/20 05:25:55;;;;;;;5.45;4.65;;;;;;;25.45;54.04;96194.44;5057495;28;20636;-50
2022/06/20 05:28:24;;;;;;;7.10;4.75;;;;;;;25.40;54.01;96193.56;5057899;28;20218;-50
2022/06/20 05:30:52;;;;;;;6.78;4.90;;;;;;;25.32;55.94;96202.91;5059050;28;20214;-49
2022/06/20 05:33:24;;;;;;;6.65;4.80;;;;;;;25.24;55.41;96197.91;5058956;28;20223;-50
2022/06/20 05:35:53;;;;;;;5.50;4.72;;;;;;;25.11;57.25;96203.63;5061625;28;20214;-51
2022/06/20 05:38:26;;;;;;;7.60;4.85;;;;;;;25.00;59.96;96210.75;5066620;28;20279;-51
2022/06/20 05:40:55;;;;;;;8.93;5.15;;;;;;;24.97;60.39;96210.44;5075355;28;20210;-51
2022/06/20 05:43:21;;;;;;;8.93;5.47;;;;;;;24.94;62.43;96222.53;5090323;28;20212;-50
2022/06/20 05:45:50;;;;;;;9.60;5.20;;;;;;;24.94;63.81;96225.25;5084458;28;20199;-50
2022/06/20 05:48:20;;;;;;;7.18;5.28;;;;;;;25.06;64.75;96219.78;5073042;28;20238;-51
2022/06/20 05:50:52;;;;;;;6.30;4.72;;;;;;;25.35;64.08;96229.47;5081364;28;20623;-49
2022/06/20 05:53:24;;;;;;;6.25;5.20;;;;;;;25.70;63.25;96232.78;5075188;28;20229;-50
2022/06/20 05:55:52;;;;;;;8.60;4.47;;;;;;;25.95;60.56;96226.09;5090780;28;20267;-50
2022/06/20 05:58:21;;;;;;;5.97;4.88;;;;;;;26.02;57.06;96229.44;5097171;28;20288;-48
2022/06/20 06:00:48;;;;;;;7.53;5.03;;;;;;;26.02;55.82;96240.28;5082201;28;20206;-50
2022/06/20 06:03:20;;;;;;;10.95;4.72;;;;;;;26.02;53.71;96238.41;5055452;28;20214;-50
2022/06/20 06:05:49;;;;;;;7.07;4.60;;;;;;;25.98;53.34;96239.13;5055906;28;20282;-48
2022/06/20 06:08:21;;;;;;;7.30;4.70;;;;;;;26.00;52.15;96245.97;5042622;28;20214;-49
2022/06/20 06:10:50;;;;;;;8.05;5.15;;;;;;;25.90;52.41;96243.09;5055523;28;20207;-51
2022/06/20 06:13:25;;;;;;;7.32;4.65;;;;;;;25.89;52.40;96241.47;5058230;28;20238;-50
2022/06/20 06:18:47;;;;;;;7.28;4.88;;;;;;;25.88;53.05;96242.53;5059570;28;20252;-49
2022/06/20 06:21:14;;;;;;;7.82;4.65;;;;;;;25.98;54.18;96255.41;5049808;28;20294;-49
2022/06/20 06:23:41;;;;;;;8.45;5.30;;;;;;;26.00;51.17;96256.81;5075859;28;20204;-50
2022/06/20 06:26:09;;;;;;;6.93;5.05;;;;;;;26.14;50.77;96249.13;5061346;28;20536;-50
2022/06/20 06:28:35;;;;;;;8.20;5.05;;;;;;;26.24;51.62;96243.88;5054420;28;20203;-50
2022/06/20 06:31:04;;;;;;;10.13;5.45;;;;;;;26.37;52.55;96253.53;5055161;28;20219;-49
2022/06/20 06:33:38;;;;;;;8.07;4.90;;;;;;;26.47;50.90;96251.75;5055852;28;20317;-48
2022/06/20 06:36:13;;;;;;;9.00;5.32;;;;;;;26.57;50.70;96254.59;5055485;28;20203;-49
2022/06/20 06:38:45;;;;;;;7.03;4.82;;;;;;;26.67;51.68;96248.50;5055662;28;20268;-51
2022/06/20 06:41:17;;;;;;;8.32;4.93;;;;;;;26.73;53.29;96253.72;5054759;28;20591;-50
2022/06/20 06:43:46;;;;;;;6.78;5.13;;;;;;;26.92;52.63;96253.41;5055572;28;20614;-51
2022/06/20 06:46:16;;;;;;;6.72;5.13;;;;;;;27.35;50.03;96256.00;5054970;28;20699;-50
2022/06/20 06:48:47;;;;;;;7.82;5.20;;;;;;;27.60;48.91;96248.09;5074626;28;20241;-50
2022/06/20 06:51:19;;;;;;;9.73;4.75;;;;;;;27.62;50.56;96256.00;5074691;28;20400;-51
2022/06/20 06:53:50;;;;;;;9.05;5.82;;;;;;;27.91;48.58;96260.03;5075248;28;20542;-50
2022/06/20 06:56:21;;;;;;;8.93;5.30;;;;;;;27.99;48.69;96261.41;5074804;28;20249;-50
2022/06/20 06:58:50;;;;;;;7.65;4.72;;;;;;;28.04;47.69;96258.75;5075369;28;20592;-49
2022/06/20 07:01:31;;;;;;;8.90;5.07;;;;;;;28.14;45.50;96258.84;5070360;28;20229;-51
2022/06/20 07:04:02;;;;;;;7.68;5.30;;;;;;;28.17;46.17;96267.28;5055226;28;20207;-50
2022/06/20 07:06:34;;;;;;;6.13;5.28;;;;;;;28.43;47.54;96262.81;5054986;28;20382;-49
2022/06/20 07:09:08;;;;;;;6.18;5.07;;;;;;;28.83;46.74;96267.66;5054988;28;20539;-50
2022/06/20 07:11:36;;;;;;;6.05;5.15;;;;;;;29.21;44.71;96274.53;5054509;28;20246;-52
2022/06/20 07:14:07;;;;;;;9.80;5.10;;;;;;;29.39;41.96;96271.34;5054410;28;20227;-51
2022/06/20 07:16:40;;;;;;;11.40;5.40;;;;;;;29.49;42.46;96271.34;5054494;28;20285;-50
2022/06/20 07:19:08;;;;;;;10.38;5.18;;;;;;;29.60;40.20;96283.88;5054449;28;20218;-51
2022/06/20 07:21:38;;;;;;;9.32;5.97;;;;;;;29.28;40.98;96288.75;5054759;28;20305;-50
2022/06/20 07:24:08;;;;;;;8.48;5.25;;;;;;;29.12;42.53;96287.06;5054432;28;20651;-51
2022/06/20 07:26:39;;;;;;;6.13;5.25;;;;;;;29.01;43.53;96293.56;5053475;28;20203;-50
2022/06/20 07:29:13;;;;;;;7.22;5.35;;;;;;;29.10;42.63;96291.94;5054936;28;20200;-50
2022/06/20 07:31:42;;;;;;;7.75;5.55;;;;;;;28.99;44.05;96293.00;5054410;28;20293;-51
2022/06/20 07:34:13;;;;;;;6.47;5.85;;;;;;;28.98;44.03;96286.72;5054293;28;20587;-51
2022/06/20 07:36:52;;;;;;;8.93;5.72;;;;;;;29.24;44.09;96290.34;5053721;28;20298;-51
2022/06/20 07:39:21;;;;;;;9.85;5.18;;;;;;;29.45;45.36;96291.22;5043284;28;20210;-52
2022/06/20 07:41:52;;;;;;;8.77;5.63;;;;;;;29.64;42.75;96295.88;5054504;28;20333;-53
2022/06/20 07:44:23;;;;;;;10.05;6.30;;;;;;;29.80;43.26;96288.50;5054371;28;20230;-53
2022/06/20 07:46:53;;;;;;;9.15;5.35;;;;;;;29.90;40.75;96301.38;5053891;28;20238;-52
2022/06/20 07:49:24;;;;;;;8.95;5.30;;;;;;;29.65;42.16;96297.50;5054655;28;20260;-50
2022/06/20 07:51:56;;;;;;;11.02;5.88;;;;;;;29.71;41.24;96292.06;5054506;28;20624;-53
2022/06/20 07:54:27;;;;;;;6.85;5.18;;;;;;;29.65;40.27;96297.50;5070435;28;20198;-50
2022/06/20 07:56:58;;;;;;;6.68;5.05;;;;;;;29.82;41.59;96296.44;5077385;28;20703;-51
2022/06/20 07:59:32;;;;;;;13.43;5.15;;;;;;;29.81;39.68;96297.50;5078157;28;20237;-52
2022/06/20 08:02:03;;;;;;;11.43;5.25;;;;;;;29.68;39.61;96298.88;5067305;28;20191;-51
2022/06/20 08:04:32;;;;;;;7.47;4.75;;;;;;;29.61;38.16;96301.06;5057504;28;20624;-50
2022/06/20 08:07:04;;;;;;;9.38;5.30;;;;;;;29.42;40.04;96298.03;5057811;28;20726;-52
2022/06/20 08:09:38;;;;;;;7.30;4.40;;;;;;;29.55;40.90;96302.94;5057730;28;20286;-51
2022/06/20 08:12:13;;;;;;;4.80;4.40;;;;;;;29.53;39.99;96305.13;5069017;28;20198;-51
2022/06/20 08:14:42;;;;;;;8.05;4.43;;;;;;;29.64;40.00;96303.25;5077779;28;20206;-51
2022/06/20 08:17:10;;;;;;;6.47;4.63;;;;;;;29.74;39.31;96295.06;5077886;28;20207;-50
2022/06/20 08:19:38;;;;;;;6.88;4.68;;;;;;;29.81;39.12;96301.06;5062900;28;20295;-50
2022/06/20 08:22:11;;;;;;;10.13;5.30;;;;;;;29.76;39.51;96297.53;5051917;28;20207;-50
2022/06/20 08:24:45;;;;;;;7.28;4.90;;;;;;;29.91;39.00;96294.81;5073300;28;20203;-51
2022/06/20 08:27:17;;;;;;;7.97;5.07;;;;;;;29.97;38.28;96301.91;5072677;28;20205;-53
2022/06/20 08:29:48;;;;;;;8.65;4.97;;;;;;;30.17;40.56;96306.53;5066740;28;20508;-50
2022/06/20 08:32:20;;;;;;;6.43;4.88;;;;;;;30.28;38.52;96311.69;5057015;28;20570;-51
2022/06/20 08:34:53;;;;;;;8.32;4.32;;;;;;;30.61;40.62;96300.16;5056655;28;20294;-52
2022/06/20 08:37:24;;;;;;;6.85;3.80;;;;;;;30.70;38.68;96303.16;5056964;28;20298;-52
2022/06/20 08:39:56;;;;;;;5.13;3.42;;;;;;;30.74;40.07;96301.50;5055739;28;20215;-50
2022/06/20 08:42:45;;;;;;;6.55;3.63;;;;;;;30.92;38.87;96311.81;5057030;28;20203;-49
2022/06/20 08:45:37;;;;;;;4.57;3.28;;;;;;;31.25;37.99;96310.28;5057095;28;20541;-52
2022/06/20 08:48:42;;;;;;;7.32;3.50;;;;;;;31.31;37.30;96311.91;5056045;28;20277;-51
2022/06/20 08:52:06;;;;;;;7.93;4.00;;;;;;;31.30;37.63;96307.53;5056688;28;20206;-51
2022/06/20 08:54:59;;;;;;;5.88;3.88;;;;;;;31.32;37.70;96288.94;5056414;28;20233;-51
2022/06/20 08:57:35;;;;;;;8.15;3.80;;;;;;;31.41;36.44;96292.72;5056726;28;20207;-51
2022/06/20 09:00:06;;;;;;;7.15;3.70;;;;;;;31.52;35.08;96288.88;5057037;28;20203;-51
2022/06/20 09:02:56;;;;;;;7.95;4.20;;;;;;;31.69;38.45;96291.19;5056347;28;20290;-52
2022/06/20 09:05:48;;;;;;;6.68;3.72;;;;;;;31.77;35.85;96292.50;5056813;28;20207;-52
2022/06/20 09:08:47;;;;;;;4.32;3.88;;;;;;;31.55;34.81;96296.50;5056477;28;20272;-51
2022/06/20 09:11:28;;;;;;;4.03;3.70;;;;;;;31.60;36.04;96297.56;5068456;28;20207;-51
2022/06/20 09:14:16;;;;;;;7.00;3.92;;;;;;;31.75;36.24;96298.25;5055886;28;20301;-51
2022/06/20 09:16:51;;;;;;;5.55;3.90;;;;;;;31.80;37.92;96294.66;5056491;28;20203;-51
2022/06/20 09:19:32;;;;;;;7.75;3.95;;;;;;;31.99;36.96;96290.13;5055934;28;20210;-52
2022/06/20 09:22:07;;;;;;;4.75;4.10;;;;;;;32.09;36.79;96287.34;5056144;28;20285;-52
2022/06/20 09:24:44;;;;;;;8.98;4.15;;;;;;;32.09;35.81;96287.34;5056385;28;20199;-51
2022/06/20 09:27:17;;;;;;;9.07;3.97;;;;;;;32.11;35.39;96290.59;5055709;28;20672;-50
2022/06/20 09:29:53;;;;;;;5.72;4.10;;;;;;;32.18;36.81;96296.53;5056352;28;20278;-51
2022/06/20 09:32:41;;;;;;;6.57;3.55;;;;;;;31.90;34.41;96300.03;5056255;28;20289;-51
2022/06/20 09:35:40;;;;;;;8.35;4.35;;;;;;;31.98;36.21;96296.69;5055845;28;20294;-51
2022/06/20 09:38:35;;;;;;;3.78;3.47;;;;;;;31.95;34.80;96297.28;5056126;28;20234;-52
2022/06/20 09:41:08;;;;;;;17.65;5.60;;;;;;;31.89;35.07;96295.66;5053312;28;20258;-50
2022/06/20 09:43:41;;;;;;;7.05;3.67;;;;;;;31.76;35.04;96302.63;5060293;28;20286;-51
2022/06/20 09:46:15;;;;;;;16.15;4.93;;;;;;;31.68;35.65;96288.72;5076112;28;20285;-50
2022/06/20 09:48:48;;;;;;;10.13;4.05;;;;;;;31.70;34.93;96289.28;5076195;28;20242;-50
2022/06/20 09:51:22;;;;;;;4.68;3.53;;;;;;;31.78;34.50;96291.41;5076558;28;20293;-52
2022/06/20 09:53:56;;;;;;;5.72;3.83;;;;;;;32.08;35.62;96293.91;5076907;28;20665;-51
2022/06/20 09:56:27;;;;;;;6.22;3.78;;;;;;;32.15;37.37;96286.16;5077317;28;20216;-51
2022/06/20 09:59:04;;;;;;;9.88;3.95;;;;;;;32.08;36.25;96284.88;5075715;28;20198;-51
2022/06/20 10:01:34;;;;;;;8.70;4.07;;;;;;;32.03;34.86;96277.47;5073476;28;20220;-52
2022/06/20 10:04:05;;;;;;;6.32;3.53;;;;;;;32.04;32.72;96273.66;5075805;28;20210;-51
2022/06/20 10:06:43;;;;;;;8.55;4.13;;;;;;;31.93;33.79;96277.59;5075438;28;20209;-51
2022/06/20 10:09:15;;;;;;;6.13;3.53;;;;;;;31.91;35.91;96275.16;5075925;28;20217;-52
2022/06/20 10:11:45;;;;;;;7.75;3.88;;;;;;;32.07;35.70;96264.91;5075503;28;20206;-51
2022/06/20 10:14:21;;;;;;;6.65;4.05;;;;;;;32.15;36.25;96267.03;5074847;28;20313;-51
2022/06/20 10:16:56;;;;;;;5.22;3.67;;;;;;;32.27;36.14;96261.97;5075077;28;20286;-51
2022/06/20 10:19:26;;;;;;;6.22;3.85;;;;;;;32.10;34.23;96258.84;5065143;28;20278;-52
2022/06/20 10:22:02;;;;;;;6.05;4.03;;;;;;;32.39;35.64;96256.91;5048082;28;20203;-50
2022/06/20 10:24:47;;;;;;;6.93;4.00;;;;;;;32.22;35.85;96256.53;5042729;28;20202;-50
2022/06/20 10:27:22;;;;;;;7.72;3.72;;;;;;;32.43;34.34;96259.88;5055537;28;20222;-52
2022/06/20 10:30:08;;;;;;;7.32;4.00;;;;;;;32.58;35.65;96250.69;5055885;28;20198;-50
2022/06/20 10:32:56;;;;;;;4.07;3.60;;;;;;;32.64;34.93;96246.78;5047036;28;20280;-51
2022/06/20 10:35:33;;;;;;;4.75;4.03;;;;;;;32.98;36.08;96250.22;5076926;28;20206;-51
2022/06/20 10:38:04;;;;;;;7.80;3.85;;;;;;;33.17;35.21;96242.81;5075466;28;20646;-52
2022/06/20 10:40:35;;;;;;;5.93;3.70;;;;;;;33.22;34.82;96240.03;5074897;28;20232;-51
2022/06/20 10:43:07;;;;;;;6.38;3.75;;;;;;;33.05;34.59;96240.50;5062523;28;20297;-51
2022/06/20 10:45:41;;;;;;;4.43;4.03;;;;;;;33.28;34.82;96238.84;5055107;28;20203;-51
2022/06/20 10:48:28;;;;;;;4.68;3.70;;;;;;;33.29;32.44;96236.91;5054598;28;20241;-53
2022/06/20 10:51:01;;;;;;;6.18;4.18;;;;;;;33.49;33.66;96234.66;5055096;28;20207;-52
2022/06/20 10:53:33;;;;;;;5.78;3.70;;;;;;;33.44;34.44;96229.25;5054937;28;20238;-50
2022/06/20 10:56:10;;;;;;;5.40;4.13;;;;;;;33.42;34.10;96223.25;5055573;28;20207;-49
2022/06/20 10:58:46;;;;;;;5.50;4.20;;;;;;;33.50;33.50;96219.03;5054624;28;20293;-51
2022/06/20 11:01:18;;;;;;;7.38;3.45;;;;;;;33.68;33.05;96220.97;5054746;28;20194;-50
2022/06/20 11:03:57;;;;;;;5.85;3.80;;;;;;;33.74;31.59;96210.72;5054883;28;20268;-52
2022/06/20 11:06:30;;;;;;;4.45;3.80;;;;;;;33.83;32.71;96217.97;5049675;28;20203;-51
2022/06/20 11:09:04;;;;;;;5.25;4.15;;;;;;;33.78;33.44;96209.00;5048058;28;20297;-51
2022/06/20 11:11:37;;;;;;;5.82;3.78;;;;;;;33.73;31.38;96201.66;5054921;28;20214;-51
2022/06/20 11:14:10;;;;;;;5.40;3.80;;;;;;;33.88;31.48;96208.81;5054434;28;20667;-52
2022/06/20 11:16:44;;;;;;;8.40;4.03;;;;;;;33.52;29.72;96201.16;5054864;28;20306;-51
2022/06/20 11:19:19;;;;;;;5.80;3.47;;;;;;;33.20;31.44;96192.91;5053859;28;20253;-50
2022/06/20 11:21:52;;;;;;;10.93;4.10;;;;;;;33.39;33.35;96193.72;5067697;28;20202;-51
2022/06/20 11:24:31;;;;;;;7.15;3.63;;;;;;;33.38;32.55;96186.59;5068540;28;20236;-51
2022/06/20 11:27:10;;;;;;;4.50;3.40;;;;;;;33.39;33.23;96188.22;5051584;28;20703;-51
2022/06/20 11:29:53;;;;;;;6.57;3.60;;;;;;;33.21;31.51;96194.53;5060239;28;20207;-50
2022/06/20 11:32:26;;;;;;;6.43;3.50;;;;;;;33.22;32.59;96189.88;5059433;28;20282;-50
2022/06/20 11:35:05;;;;;;;5.25;3.45;;;;;;;33.15;30.35;96189.44;5060035;28;20215;-51
2022/06/20 11:37:50;;;;;;;7.22;3.88;;;;;;;33.06;31.96;96186.50;5059753;28;20291;-51
2022/06/20 11:40:43;;;;;;;7.38;3.53;;;;;;;33.27;32.40;96182.38;5060323;28;20266;-50
2022/06/20 11:43:29;;;;;;;11.70;4.38;;;;;;;33.43;32.49;96182.97;5058932;28;20287;-51
2022/06/20 11:46:13;;;;;;;7.15;3.55;;;;;;;33.78;31.05;96189.78;5060079;28;20203;-50
2022/06/20 11:48:51;;;;;;;6.90;2.90;;;;;;;33.77;30.48;96171.69;5058468;28;20269;-51
2022/06/20 11:51:22;;;;;;;6.28;3.03;;;;;;;33.93;28.78;96173.06;5059304;28;20233;-52
2022/06/20 11:54:01;;;;;;;5.60;3.10;;;;;;;34.10;29.62;96166.97;5068001;28;20622;-50
2022/06/20 11:56:32;;;;;;;7.55;3.13;;;;;;;34.13;28.82;96172.72;5080102;28;20792;-52
2022/06/20 11:59:16;;;;;;;5.80;3.05;;;;;;;34.17;29.53;96162.75;5079645;28;20290;-50
2022/06/20 12:01:47;;;;;;;3.53;2.90;;;;;;;34.25;29.68;96164.78;5075654;28;20202;-52
2022/06/20 12:04:19;;;;;;;5.80;2.80;;;;;;;34.30;29.93;96161.13;5065114;28;20199;-52